Time;durP1;ratioP1;P1;durP2;ratioP2;P2;SDS_P1;SDS_P2;PMS_P1;PMS_P2;Temp;Humidity;BMP_temperature;BMP_pressure;BME280_temperature;BME280_humidity;BME280_pressure;Samples;Min_cycle;Max_cycle;Signal;HPM_P1;HPM_P2
2022/11/28 00:02:22;;;;;;;;;;;;;;;12.00;nan;102257.00;5058557;28;19916;-33
2022/11/28 00:04:49;;;;;;;;;;;;;;;11.97;nan;102260.13;5061611;28;19923;-33
2022/11/28 00:07:15;;;;;;;;;;;;;;;11.97;nan;102258.25;5064740;28;19917;-33
2022/11/28 00:09:40;;;;;;;;;;;;;;;11.97;nan;102252.06;5066314;28;19974;-33
2022/11/28 00:12:05;;;;;;;;;;;;;;;11.93;nan;102245.50;5065391;28;19924;-33
2022/11/28 00:14:31;;;;;;;;;;;;;;;11.95;nan;102243.41;5062310;28;19916;-33
2022/11/28 00:16:56;;;;;;;;;;;;;;;11.96;nan;102239.69;5063136;28;19916;-33
2022/11/28 00:19:21;;;;;;;;;;;;;;;11.98;nan;102248.34;5058303;28;20007;-33
2022/11/28 00:21:47;;;;;;;;;;;;;;;11.97;nan;102238.66;5065618;28;20445;-33
2022/11/28 00:24:12;;;;;;;;;;;;;;;11.99;nan;102241.94;5065397;28;20407;-33
2022/11/28 00:26:39;;;;;;;;;;;;;;;11.97;nan;102247.53;5062248;28;19921;-33
2022/11/28 00:29:05;;;;;;;;;;;;;;;11.96;nan;102243.19;5061030;28;19956;-33
2022/11/28 00:31:32;;;;;;;;;;;;;;;11.97;nan;102241.31;5066100;28;19942;-33
2022/11/28 00:33:57;;;;;;;;;;;;;;;11.99;nan;102240.06;5064201;28;20146;-33
2022/11/28 00:36:23;;;;;;;;;;;;;;;11.99;nan;102239.25;5065390;28;19960;-33
2022/11/28 00:38:49;;;;;;;;;;;;;;;11.97;nan;102241.31;5060977;28;19920;-33
2022/11/28 00:41:25;;;;;;;;;;;;;;;11.95;nan;102238.88;5067215;28;19974;-33
2022/11/28 00:43:52;;;;;;;;;;;;;;;11.94;nan;102233.72;5063976;28;19920;-33
2022/11/28 00:46:18;;;;;;;;;;;;;;;11.97;nan;102236.78;5059149;28;19921;-33
2022/11/28 00:48:44;;;;;;;;;;;;;;;12.02;nan;102236.09;5061593;28;19916;-33
2022/11/28 00:51:14;;;;;;;;;;;;;;;12.01;nan;102234.47;5058627;28;20018;-33
2022/11/28 00:53:41;;;;;;;;;;;;;;;12.00;nan;102235.50;5064084;28;19920;-33
2022/11/28 00:56:07;;;;;;;;;;;;;;;12.00;nan;102236.34;5064746;28;19983;-33
2022/11/28 00:58:33;;;;;;;;;;;;;;;12.03;nan;102237.78;5058889;28;19967;-33
2022/11/28 01:00:59;;;;;;;;;;;;;;;12.02;nan;102236.09;5061522;28;20315;-33
2022/11/28 01:03:25;;;;;;;;;;;;;;;12.01;nan;102232.59;5066310;28;19916;-33
2022/11/28 01:05:50;;;;;;;;;;;;;;;12.02;nan;102244.97;5063902;28;19932;-33
2022/11/28 01:08:16;;;;;;;;;;;;;;;12.01;nan;102234.47;5065061;28;19924;-33
2022/11/28 01:10:42;;;;;;;;;;;;;;;12.01;nan;102231.78;5060443;28;19917;-33
2022/11/28 01:13:08;;;;;;;;;;;;;;;12.01;nan;102221.84;5061723;28;19924;-33
2022/11/28 01:15:33;;;;;;;;;;;;;;;12.01;nan;102227.22;5061881;28;20031;-33
2022/11/28 01:18:00;;;;;;;;;;;;;;;12.05;nan;102219.56;5064028;28;20019;-33
2022/11/28 01:20:25;;;;;;;;;;;;;;;11.98;nan;102211.56;5060368;28;19924;-33
2022/11/28 01:22:50;;;;;;;;;;;;;;;11.94;nan;102220.28;5060473;28;19920;-33
2022/11/28 01:25:16;;;;;;;;;;;;;;;11.93;nan;102222.16;5064852;28;20002;-33
2022/11/28 01:27:41;;;;;;;;;;;;;;;11.92;nan;102212.44;5064713;28;19966;-33
2022/11/28 01:30:06;;;;;;;;;;;;;;;11.92;nan;102217.00;5064625;28;19927;-33
2022/11/28 01:32:32;;;;;;;;;;;;;;;11.88;nan;102213.94;5062100;28;19920;-33
2022/11/28 01:34:57;;;;;;;;;;;;;;;11.89;nan;102212.09;5061813;28;20453;-33
2022/11/28 01:37:22;;;;;;;;;;;;;;;11.94;nan;102207.69;5061121;28;19917;-33
2022/11/28 01:39:48;;;;;;;;;;;;;;;11.95;nan;102201.25;5062919;28;20414;-33
2022/11/28 01:42:17;;;;;;;;;;;;;;;11.92;nan;102199.03;5062516;28;19920;-33
2022/11/28 01:44:49;;;;;;;;;;;;;;;11.95;nan;102192.38;5061468;28;19924;-33
2022/11/28 01:47:16;;;;;;;;;;;;;;;11.93;nan;102187.22;5058933;28;19924;-33
2022/11/28 01:49:43;;;;;;;;;;;;;;;11.94;nan;102183.50;5064444;28;19916;-33
2022/11/28 01:52:10;;;;;;;;;;;;;;;11.96;nan;102177.91;5064269;28;19924;-33
2022/11/28 01:54:37;;;;;;;;;;;;;;;11.93;nan;102176.50;5062292;28;20399;-33
2022/11/28 01:57:05;;;;;;;;;;;;;;;11.90;nan;102173.44;5056151;28;20298;-33
2022/11/28 01:59:33;;;;;;;;;;;;;;;11.89;nan;102175.31;5057717;28;19916;-33
2022/11/28 02:01:59;;;;;;;;;;;;;;;11.89;nan;102174.47;5059463;28;19925;-33
2022/11/28 02:04:27;;;;;;;;;;;;;;;11.89;nan;102171.78;5060256;28;19916;-33
2022/11/28 02:06:53;;;;;;;;;;;;;;;11.82;nan;102174.53;5056172;28;19924;-33
2022/11/28 02:09:18;;;;;;;;;;;;;;;11.79;nan;102164.22;5061383;28;19926;-33
2022/11/28 02:11:47;;;;;;;;;;;;;;;11.72;nan;102168.81;5072184;22;19921;-37
2022/11/28 02:14:37;;;;;;;;;;;;;;;11.66;nan;102178.56;5084303;28;19935;-35
2022/11/28 02:17:11;;;;;;;;;;;;;;;11.63;nan;102165.59;5083073;28;19919;-37
2022/11/28 02:19:52;;;;;;;;;;;;;;;11.62;nan;102165.81;5079867;28;19916;-36
2022/11/28 02:22:31;;;;;;;;;;;;;;;11.60;nan;102152.59;5080831;28;19920;-36
2022/11/28 02:25:06;;;;;;;;;;;;;;;11.62;nan;102153.22;5074030;28;19931;-35
2022/11/28 02:27:38;;;;;;;;;;;;;;;11.60;nan;102139.19;5071401;28;19917;-35
2022/11/28 02:30:06;;;;;;;;;;;;;;;11.62;nan;102138.97;5073695;28;19920;-35
2022/11/28 02:32:44;;;;;;;;;;;;;;;11.64;nan;102143.06;5077828;28;19935;-35
2022/11/28 02:35:21;;;;;;;;;;;;;;;11.62;nan;102141.66;5076351;28;19984;-35
2022/11/28 02:38:03;;;;;;;;;;;;;;;11.60;nan;102144.56;5070998;28;19963;-35
2022/11/28 02:40:49;;;;;;;;;;;;;;;11.57;nan;102136.94;5074995;28;19927;-35
2022/11/28 02:43:31;;;;;;;;;;;;;;;11.59;nan;102134.84;5060599;28;20156;-35
2022/11/28 02:46:01;;;;;;;;;;;;;;;11.63;nan;102133.38;5078035;28;19931;-35
2022/11/28 02:48:27;;;;;;;;;;;;;;;11.68;nan;102136.22;5073634;28;19916;-35
2022/11/28 02:50:57;;;;;;;;;;;;;;;11.70;nan;102133.31;5077941;28;19995;-35
2022/11/28 02:53:25;;;;;;;;;;;;;;;11.75;nan;102130.78;5078928;28;19916;-35
2022/11/28 02:55:50;;;;;;;;;;;;;;;11.82;nan;102130.75;5077713;28;20283;-36
2022/11/28 02:58:17;;;;;;;;;;;;;;;11.80;nan;102126.41;5078872;28;20290;-35
2022/11/28 03:00:44;;;;;;;;;;;;;;;11.80;nan;102131.78;5075673;28;19916;-36
2022/11/28 03:03:30;;;;;;;;;;;;;;;11.80;nan;102125.59;5073239;28;19922;-35
2022/11/28 03:06:08;;;;;;;;;;;;;;;11.76;nan;102125.19;5034975;28;19955;-36
2022/11/28 03:08:34;;;;;;;;;;;;;;;11.72;nan;102117.81;5080757;28;20359;-35
2022/11/28 03:11:19;;;;;;;;;;;;;;;11.74;nan;102116.53;5075381;28;20014;-36
2022/11/28 03:14:08;;;;;;;;;;;;;;;11.72;nan;102112.44;5072543;28;19962;-35
2022/11/28 03:16:39;;;;;;;;;;;;;;;11.64;nan;102113.53;5072126;28;19928;-37
2022/11/28 03:19:13;;;;;;;;;;;;;;;11.68;nan;102120.13;5072180;28;19927;-35
2022/11/28 03:21:46;;;;;;;;;;;;;;;11.66;nan;102111.44;5074620;28;20009;-37
2022/11/28 03:24:15;;;;;;;;;;;;;;;11.66;nan;102099.88;5072936;28;19923;-36
2022/11/28 03:26:55;;;;;;;;;;;;;;;11.65;nan;102104.44;5076059;28;19920;-37
2022/11/28 03:29:24;;;;;;;;;;;;;;;11.63;nan;102101.16;5079631;28;19936;-35
2022/11/28 03:31:51;;;;;;;;;;;;;;;11.67;nan;102110.44;5079409;28;19925;-35
2022/11/28 03:34:19;;;;;;;;;;;;;;;11.62;nan;102110.25;5075856;28;19931;-36
2022/11/28 03:36:51;;;;;;;;;;;;;;;11.57;nan;102102.06;5076768;28;19916;-35
2022/11/28 03:39:18;;;;;;;;;;;;;;;11.58;nan;102106.38;5075340;28;19927;-35
2022/11/28 03:41:53;;;;;;;;;;;;;;;11.57;nan;102099.38;5077051;28;20408;-35
2022/11/28 03:44:27;;;;;;;;;;;;;;;11.53;nan;102100.03;5077429;28;20166;-35
2022/11/28 03:46:54;;;;;;;;;;;;;;;11.46;nan;102095.53;5076906;28;19980;-37
2022/11/28 03:49:23;;;;;;;;;;;;;;;11.47;nan;102096.34;5081284;28;19923;-37
2022/11/28 03:52:10;;;;;;;;;;;;;;;11.46;nan;102100.09;5076828;28;19916;-35
2022/11/28 03:54:41;;;;;;;;;;;;;;;11.46;nan;102095.53;5081701;28;19927;-35
2022/11/28 03:57:09;;;;;;;;;;;;;;;11.43;nan;102089.78;5074189;28;20036;-37
2022/11/28 03:59:37;;;;;;;;;;;;;;;11.45;nan;102093.06;5083340;28;20094;-35
2022/11/28 04:02:06;;;;;;;;;;;;;;;11.46;nan;102089.34;5075669;28;20349;-35
2022/11/28 04:04:51;;;;;;;;;;;;;;;11.48;nan;102081.88;5085605;28;20366;-36
2022/11/28 04:07:23;;;;;;;;;;;;;;;11.49;nan;102083.56;5032586;28;19973;-37
2022/11/28 04:09:52;;;;;;;;;;;;;;;11.47;nan;102078.38;5078388;28;19916;-35
2022/11/28 04:12:28;;;;;;;;;;;;;;;11.46;nan;102074.06;5074726;28;19995;-35
2022/11/28 04:14:59;;;;;;;;;;;;;;;11.45;nan;102075.09;5076199;28;19932;-36
2022/11/28 04:17:24;;;;;;;;;;;;;;;11.46;nan;102066.00;5078354;28;20007;-35
2022/11/28 04:19:53;;;;;;;;;;;;;;;11.47;nan;102074.88;5079196;28;20053;-35
2022/11/28 04:22:31;;;;;;;;;;;;;;;11.47;nan;102070.34;5082713;28;20081;-36
2022/11/28 04:24:59;;;;;;;;;;;;;;;11.47;nan;102062.28;5075807;28;20422;-35
2022/11/28 04:27:32;;;;;;;;;;;;;;;11.48;nan;102068.47;5080073;28;19920;-35
2022/11/28 04:29:59;;;;;;;;;;;;;;;11.47;nan;102064.16;5079150;28;19957;-35
2022/11/28 04:32:27;;;;;;;;;;;;;;;11.44;nan;102065.41;5081501;28;19923;-35
2022/11/28 04:34:55;;;;;;;;;;;;;;;11.43;nan;102058.41;5076410;28;19932;-35
2022/11/28 04:37:22;;;;;;;;;;;;;;;11.42;nan;102055.94;5076091;28;20473;-35
2022/11/28 04:39:48;;;;;;;;;;;;;;;11.43;nan;102057.59;5073603;28;20430;-35
2022/11/28 04:42:17;;;;;;;;;;;;;;;11.43;nan;102057.59;5080650;28;19920;-35
2022/11/28 04:44:48;;;;;;;;;;;;;;;11.40;nan;102058.03;5077478;28;19916;-36
2022/11/28 04:47:14;;;;;;;;;;;;;;;11.35;nan;102060.56;5078813;28;20057;-35
2022/11/28 04:49:40;;;;;;;;;;;;;;;11.30;nan;102055.03;5072287;28;20014;-37
2022/11/28 04:52:08;;;;;;;;;;;;;;;11.32;nan;102056.47;5079665;28;20383;-35
2022/11/28 04:54:52;;;;;;;;;;;;;;;11.30;nan;102050.47;5079384;28;19966;-35
2022/11/28 04:57:49;;;;;;;;;;;;;;;11.31;nan;102049.47;5081134;28;19931;-35
2022/11/28 05:00:17;;;;;;;;;;;;;;;11.31;nan;102046.78;5037576;28;19923;-35
2022/11/28 05:02:44;;;;;;;;;;;;;;;11.29;nan;102056.06;5079811;28;19950;-35
2022/11/28 05:05:11;;;;;;;;;;;;;;;11.27;nan;102052.78;5078143;28;20054;-34
2022/11/28 05:07:36;;;;;;;;;;;;;;;11.24;nan;102056.75;5077402;28;19959;-35
2022/11/28 05:10:02;;;;;;;;;;;;;;;11.25;nan;102052.19;5074094;28;19955;-35
2022/11/28 05:12:27;;;;;;;;;;;;;;;11.22;nan;102047.28;5079321;28;19966;-35
2022/11/28 05:14:53;;;;;;;;;;;;;;;11.19;nan;102049.34;5077848;28;20616;-35
2022/11/28 05:17:18;;;;;;;;;;;;;;;11.22;nan;102045.41;5072180;28;20436;-35
2022/11/28 05:19:43;;;;;;;;;;;;;;;11.22;nan;102041.91;5074546;28;19995;-35
2022/11/28 05:22:09;;;;;;;;;;;;;;;11.22;nan;102039.22;5078984;28;20007;-35
2022/11/28 05:24:34;;;;;;;;;;;;;;;11.23;nan;102030.13;5080474;28;19916;-35
2022/11/28 05:27:00;;;;;;;;;;;;;;;11.25;nan;102030.72;5075266;28;19924;-35
2022/11/28 05:29:25;;;;;;;;;;;;;;;11.25;nan;102034.22;5070272;28;19920;-35
2022/11/28 05:31:50;;;;;;;;;;;;;;;11.26;nan;102033.19;5075431;28;19939;-37
2022/11/28 05:34:16;;;;;;;;;;;;;;;11.28;nan;102032.97;5075066;28;19965;-35
2022/11/28 05:36:41;;;;;;;;;;;;;;;11.29;nan;102031.91;5080925;28;19916;-36
2022/11/28 05:39:06;;;;;;;;;;;;;;;11.28;nan;102024.91;5074310;28;19967;-35
2022/11/28 05:41:32;;;;;;;;;;;;;;;11.29;nan;102037.28;5072105;28;19920;-36
2022/11/28 05:43:59;;;;;;;;;;;;;;;11.29;nan;102029.25;5075254;28;19955;-35
2022/11/28 05:46:24;;;;;;;;;;;;;;;11.30;nan;102028.19;5079517;28;19930;-35
2022/11/28 05:48:50;;;;;;;;;;;;;;;11.30;nan;102036.25;5078955;28;19920;-35
2022/11/28 05:51:16;;;;;;;;;;;;;;;11.30;nan;102036.25;5073900;28;20228;-35
2022/11/28 05:53:41;;;;;;;;;;;;;;;11.31;nan;102033.38;5078564;28;19916;-37
2022/11/28 05:56:08;;;;;;;;;;;;;;;11.31;nan;102035.19;5077025;28;20268;-35
2022/11/28 05:58:33;;;;;;;;;;;;;;;11.29;nan;102030.06;5072834;28;19920;-36
2022/11/28 06:00:59;;;;;;;;;;;;;;;11.32;nan;102028.81;5077890;28;19922;-37
2022/11/28 06:03:24;;;;;;;;;;;;;;;11.34;nan;102034.78;5079961;28;20015;-35
2022/11/28 06:05:50;;;;;;;;;;;;;;;11.33;nan;102025.09;5076851;28;19920;-36
2022/11/28 06:08:15;;;;;;;;;;;;;;;11.35;nan;102033.75;5077010;28;19924;-35
2022/11/28 06:10:41;;;;;;;;;;;;;;;11.32;nan;102028.81;5079125;28;19919;-35
2022/11/28 06:13:06;;;;;;;;;;;;;;;11.26;nan;102030.50;5076289;28;19923;-35
2022/11/28 06:15:32;;;;;;;;;;;;;;;11.22;nan;102028.50;5080491;28;19920;-37
2022/11/28 06:17:57;;;;;;;;;;;;;;;11.18;nan;102031.63;5071790;28;19924;-36
2022/11/28 06:20:23;;;;;;;;;;;;;;;11.16;nan;102025.66;5079877;28;19920;-36
2022/11/28 06:22:48;;;;;;;;;;;;;;;11.11;nan;102027.34;5071964;28;20371;-35
2022/11/28 06:25:14;;;;;;;;;;;;;;;11.11;nan;102024.66;5077438;28;19924;-35
2022/11/28 06:27:40;;;;;;;;;;;;;;;11.11;nan;102027.34;5077305;28;20113;-35
2022/11/28 06:30:06;;;;;;;;;;;;;;;11.12;nan;102024.44;5076071;28;19924;-35
2022/11/28 06:32:32;;;;;;;;;;;;;;;11.11;nan;102030.84;5073506;28;19923;-36
2022/11/28 06:34:57;;;;;;;;;;;;;;;11.05;nan;102023.69;5072405;28;20437;-35
2022/11/28 06:37:22;;;;;;;;;;;;;;;11.04;nan;102015.88;5072268;28;19930;-35
2022/11/28 06:39:50;;;;;;;;;;;;;;;11.05;nan;102012.97;5075541;28;19919;-35
2022/11/28 06:42:15;;;;;;;;;;;;;;;11.06;nan;102008.41;5075293;28;20335;-34
2022/11/28 06:44:41;;;;;;;;;;;;;;;11.07;nan;102015.41;5072780;28;20015;-35
2022/11/28 06:47:07;;;;;;;;;;;;;;;11.09;nan;102013.34;5071054;28;20448;-36
2022/11/28 06:49:32;;;;;;;;;;;;;;;11.08;nan;102017.88;5073591;28;19916;-36
2022/11/28 06:51:57;;;;;;;;;;;;;;;11.08;nan;102014.38;5071596;28;19926;-34
2022/11/28 06:54:23;;;;;;;;;;;;;;;11.09;nan;102008.78;5078979;28;19959;-36
2022/11/28 06:56:48;;;;;;;;;;;;;;;11.06;nan;102009.25;5071513;28;20079;-36
2022/11/28 06:59:13;;;;;;;;;;;;;;;11.01;nan;102008.25;5074231;28;19935;-36
2022/11/28 07:01:39;;;;;;;;;;;;;;;11.03;nan;102007.00;5078442;28;19920;-37
2022/11/28 07:04:04;;;;;;;;;;;;;;;11.07;nan;102005.50;5077885;28;19916;-36
2022/11/28 07:06:29;;;;;;;;;;;;;;;11.08;nan;102001.78;5076674;28;20216;-35
2022/11/28 07:08:56;;;;;;;;;;;;;;;11.07;nan;101999.31;5078867;28;19920;-36
2022/11/28 07:11:23;;;;;;;;;;;;;;;11.06;nan;102008.41;5080645;28;19916;-34
2022/11/28 07:13:49;;;;;;;;;;;;;;;11.08;nan;102000.97;5077425;28;19920;-35
2022/11/28 07:16:15;;;;;;;;;;;;;;;11.12;nan;101996.78;5078488;28;19935;-34
2022/11/28 07:18:41;;;;;;;;;;;;;;;11.12;nan;101994.94;5080022;28;19920;-35
2022/11/28 07:21:06;;;;;;;;;;;;;;;11.13;nan;101993.06;5080257;28;19957;-34
2022/11/28 07:23:32;;;;;;;;;;;;;;;11.10;nan;101993.50;5078252;28;19920;-37
2022/11/28 07:25:58;;;;;;;;;;;;;;;11.10;nan;101997.00;5079589;28;19920;-34
2022/11/28 07:28:24;;;;;;;;;;;;;;;11.10;nan;101988.16;5071849;28;19919;-35
2022/11/28 07:30:56;;;;;;;;;;;;;;;11.09;nan;101983.84;5079216;28;19920;-35
2022/11/28 07:33:22;;;;;;;;;;;;;;;11.06;nan;101977.06;5081385;28;20383;-35
2022/11/28 07:35:47;;;;;;;;;;;;;;;11.05;nan;101967.38;5081659;28;19966;-35
2022/11/28 07:38:12;;;;;;;;;;;;;;;11.05;nan;101963.88;5072362;28;19921;-37
2022/11/28 07:40:38;;;;;;;;;;;;;;;11.07;nan;101965.28;5073669;28;19920;-34
2022/11/28 07:43:03;;;;;;;;;;;;;;;11.07;nan;101957.22;5071727;28;19977;-35
2022/11/28 07:45:28;;;;;;;;;;;;;;;11.11;nan;101947.69;5072784;28;20302;-35
2022/11/28 07:47:54;;;;;;;;;;;;;;;11.12;nan;101943.16;5071995;28;20480;-36
2022/11/28 07:50:19;;;;;;;;;;;;;;;11.13;nan;101944.78;5071570;28;20127;-35
2022/11/28 07:52:44;;;;;;;;;;;;;;;11.10;nan;101954.09;5072120;28;19920;-37
2022/11/28 07:55:10;;;;;;;;;;;;;;;11.07;nan;101959.09;5072635;28;19928;-35
2022/11/28 07:57:35;;;;;;;;;;;;;;;11.06;nan;101969.00;5071123;28;20014;-35
2022/11/28 08:00:01;;;;;;;;;;;;;;;11.06;nan;101976.22;5070249;28;20066;-35
2022/11/28 08:02:31;;;;;;;;;;;;;;;11.10;nan;101969.38;5071590;28;20012;-35
2022/11/28 08:04:57;;;;;;;;;;;;;;;11.09;nan;101962.38;5068562;28;19931;-35
2022/11/28 08:07:22;;;;;;;;;;;;;;;11.05;nan;101958.50;5072470;28;19920;-35
2022/11/28 08:09:47;;;;;;;;;;;;;;;11.00;nan;101959.19;5071258;28;20387;-34
2022/11/28 08:12:13;;;;;;;;;;;;;;;11.02;nan;101965.13;5089660;22;19922;-32
2022/11/28 08:14:38;;;;;;;;;;;;;;;10.98;nan;101971.16;5085503;28;20112;-33
2022/11/28 08:17:03;;;;;;;;;;;;;;;10.97;nan;101974.88;5085909;28;20445;-33
2022/11/28 08:19:28;;;;;;;;;;;;;;;10.92;nan;101972.84;5085492;28;19924;-32
2022/11/28 08:21:54;;;;;;;;;;;;;;;10.93;nan;101960.25;5086354;28;19943;-33
2022/11/28 08:24:19;;;;;;;;;;;;;;;10.93;nan;101966.44;5073037;28;19958;-33
2022/11/28 08:26:45;;;;;;;;;;;;;;;10.94;nan;101969.94;5074413;28;19921;-33
2022/11/28 08:29:10;;;;;;;;;;;;;;;10.82;nan;101968.00;5071200;28;20326;-32
2022/11/28 08:31:37;;;;;;;;;;;;;;;10.78;nan;101958.75;5071676;28;19916;-32
2022/11/28 08:34:04;;;;;;;;;;;;;;;10.71;nan;101949.94;5071223;28;19916;-32
2022/11/28 08:36:29;;;;;;;;;;;;;;;10.76;nan;101955.44;5072815;28;19924;-32
2022/11/28 08:38:55;;;;;;;;;;;;;;;10.77;nan;101967.84;5073874;28;19920;-33
2022/11/28 08:41:22;;;;;;;;;;;;;;;10.76;nan;101965.34;5079720;28;19935;-33
2022/11/28 08:43:48;;;;;;;;;;;;;;;10.75;nan;101953.81;5074128;28;20530;-32
2022/11/28 08:46:15;;;;;;;;;;;;;;;10.80;nan;101956.69;5079079;28;20631;-33
2022/11/28 08:48:40;;;;;;;;;;;;;;;10.85;nan;101964.06;5076506;28;19923;-32
2022/11/28 08:51:06;;;;;;;;;;;;;;;10.91;nan;101968.53;5072072;28;19916;-33
2022/11/28 08:53:31;;;;;;;;;;;;;;;10.94;nan;101968.06;5074130;28;19931;-32
2022/11/28 08:55:58;;;;;;;;;;;;;;;11.01;nan;101957.31;5074018;28;20293;-32
2022/11/28 08:58:23;;;;;;;;;;;;;;;11.03;nan;101965.94;5072190;28;19917;-32
2022/11/28 09:00:48;;;;;;;;;;;;;;;11.02;nan;101973.19;5073688;28;19924;-32
2022/11/28 09:03:15;;;;;;;;;;;;;;;11.01;nan;101966.19;5074123;28;19931;-33
2022/11/28 09:05:41;;;;;;;;;;;;;;;11.03;nan;101974.00;5075222;28;19920;-32
2022/11/28 09:08:07;;;;;;;;;;;;;;;11.05;nan;101966.53;5072477;28;19916;-32
2022/11/28 09:10:34;;;;;;;;;;;;;;;11.08;nan;101963.41;5074670;28;19942;-32
2022/11/28 09:12:59;;;;;;;;;;;;;;;11.09;nan;101965.88;5072983;28;19925;-32
2022/11/28 09:15:24;;;;;;;;;;;;;;;11.13;nan;101980.50;5074921;28;19920;-32
2022/11/28 09:17:50;;;;;;;;;;;;;;;11.14;nan;101973.28;5072512;28;19916;-33
2022/11/28 09:20:15;;;;;;;;;;;;;;;11.16;nan;101971.19;5072871;28;19959;-32
2022/11/28 09:22:41;;;;;;;;;;;;;;;11.27;nan;101972.31;5055464;28;20013;-33
2022/11/28 09:25:07;;;;;;;;;;;;;;;11.27;nan;101972.31;5075155;28;20295;-33
2022/11/28 09:27:32;;;;;;;;;;;;;;;11.34;nan;101975.75;5073396;28;20387;-33
2022/11/28 09:29:57;;;;;;;;;;;;;;;11.37;nan;101962.72;5074330;28;19916;-32
2022/11/28 09:32:23;;;;;;;;;;;;;;;11.42;nan;101962.84;5073748;28;19958;-33
2022/11/28 09:34:50;;;;;;;;;;;;;;;11.47;nan;101962.97;5071980;28;19917;-33
2022/11/28 09:37:15;;;;;;;;;;;;;;;11.49;nan;101958.25;5072560;28;19916;-32
2022/11/28 09:39:41;;;;;;;;;;;;;;;11.55;nan;101950.31;5072370;28;19920;-33
2022/11/28 09:42:25;;;;;;;;;;;;;;;11.63;nan;101950.81;5073491;28;19917;-32
2022/11/28 09:44:53;;;;;;;;;;;;;;;11.63;nan;101947.31;5071997;28;19931;-32
2022/11/28 09:47:21;;;;;;;;;;;;;;;11.63;nan;101953.50;5074571;28;19982;-33
2022/11/28 09:50:09;;;;;;;;;;;;;;;11.64;nan;101946.28;5072322;28;19966;-33
2022/11/28 09:52:44;;;;;;;;;;;;;;;11.61;nan;101942.19;5073571;28;20453;-32
2022/11/28 09:55:14;;;;;;;;;;;;;;;11.66;nan;101944.19;5072918;28;20087;-33
2022/11/28 09:57:42;;;;;;;;;;;;;;;11.68;nan;101942.13;5074444;28;19916;-33
2022/11/28 10:00:31;;;;;;;;;;;;;;;11.70;nan;101934.66;5074232;28;19923;-34
2022/11/28 10:03:02;;;;;;;;;;;;;;;11.72;nan;101938.75;5058419;28;19977;-32
2022/11/28 10:05:34;;;;;;;;;;;;;;;11.69;nan;101941.88;5073278;28;19920;-32
2022/11/28 10:08:00;;;;;;;;;;;;;;;11.73;nan;101935.00;5071270;28;19916;-33
2022/11/28 10:10:35;;;;;;;;;;;;;;;11.73;nan;101935.00;5071282;28;19994;-33
2022/11/28 10:13:12;;;;;;;;;;;;;;;11.71;nan;101926.38;5071723;28;20012;-33
2022/11/28 10:15:49;;;;;;;;;;;;;;;11.71;nan;101937.09;5071485;28;19927;-33
2022/11/28 10:18:14;;;;;;;;;;;;;;;11.68;nan;101918.78;5072640;28;19927;-33
2022/11/28 10:20:41;;;;;;;;;;;;;;;11.70;nan;101918.53;5075939;28;19916;-32
2022/11/28 10:23:13;;;;;;;;;;;;;;;11.69;nan;101920.41;5072213;28;19948;-33
2022/11/28 10:25:45;;;;;;;;;;;;;;;11.70;nan;101913.16;5071906;28;19916;-33
2022/11/28 10:28:13;;;;;;;;;;;;;;;11.72;nan;101919.13;5072083;28;19923;-32
2022/11/28 10:30:41;;;;;;;;;;;;;;;11.78;nan;101920.91;5072178;28;19967;-33
2022/11/28 10:33:15;;;;;;;;;;;;;;;11.83;nan;101915.69;5072695;28;19927;-32
2022/11/28 10:35:43;;;;;;;;;;;;;;;11.85;nan;101921.69;5071699;28;19966;-33
2022/11/28 10:38:10;;;;;;;;;;;;;;;11.87;nan;101918.75;5073245;28;19927;-33
2022/11/28 10:40:51;;;;;;;;;;;;;;;11.96;nan;101909.31;5071440;28;19916;-33
2022/11/28 10:43:34;;;;;;;;;;;;;;;11.99;nan;101906.16;5070977;28;19920;-33
2022/11/28 10:46:23;;;;;;;;;;;;;;;11.97;nan;101897.53;5070258;28;19919;-33
2022/11/28 10:48:48;;;;;;;;;;;;;;;11.97;nan;101902.91;5058348;28;19921;-33
2022/11/28 10:51:16;;;;;;;;;;;;;;;11.99;nan;101892.75;5071427;28;20455;-33
2022/11/28 10:53:42;;;;;;;;;;;;;;;12.01;nan;101878.03;5071014;28;19969;-33
2022/11/28 10:56:10;;;;;;;;;;;;;;;12.05;nan;101881.91;5070627;28;20350;-32
2022/11/28 10:58:41;;;;;;;;;;;;;;;12.14;nan;101876.19;5070752;28;20300;-32
2022/11/28 11:01:07;;;;;;;;;;;;;;;12.24;nan;101879.16;5073193;28;19923;-33
2022/11/28 11:03:35;;;;;;;;;;;;;;;12.29;nan;101869.34;5072407;28;19916;-33
2022/11/28 11:06:01;;;;;;;;;;;;;;;12.36;nan;101875.41;5072888;28;20290;-33
2022/11/28 11:08:27;;;;;;;;;;;;;;;12.41;nan;101866.66;5071188;28;19927;-33
2022/11/28 11:10:55;;;;;;;;;;;;;;;12.49;nan;101869.00;5070979;28;20410;-33
2022/11/28 11:13:22;;;;;;;;;;;;;;;12.58;nan;101870.28;5073151;28;19927;-33
2022/11/28 11:15:58;;;;;;;;;;;;;;;12.63;nan;101864.22;5074064;28;19923;-32
2022/11/28 11:18:35;;;;;;;;;;;;;;;12.65;nan;101883.63;5073703;28;19917;-33
2022/11/28 11:21:12;;;;;;;;;;;;;;;12.62;nan;101878.72;5073552;28;19972;-33
2022/11/28 11:23:38;;;;;;;;;;;;;;;12.59;nan;101879.19;5070345;28;20295;-33
2022/11/28 11:26:04;;;;;;;;;;;;;;;12.51;nan;101872.25;5072673;28;19916;-33
2022/11/28 11:28:46;;;;;;;;;;;;;;;12.53;nan;101872.03;5071000;28;19942;-33
2022/11/28 11:31:17;;;;;;;;;;;;;;;12.46;nan;101865.97;5071641;28;19924;-33
2022/11/28 11:33:43;;;;;;;;;;;;;;;12.42;nan;101859.41;5070851;28;19924;-32
2022/11/28 11:36:21;;;;;;;;;;;;;;;12.49;nan;101858.25;5071856;28;19920;-33
2022/11/28 11:38:47;;;;;;;;;;;;;;;12.57;nan;101855.22;5071121;28;19952;-33
2022/11/28 11:41:25;;;;;;;;;;;;;;;12.62;nan;101858.00;5073181;28;19986;-33
2022/11/28 11:43:50;;;;;;;;;;;;;;;12.62;nan;101858.00;5067705;28;19939;-33
2022/11/28 11:46:16;;;;;;;;;;;;;;;12.61;nan;101864.44;5074717;28;20360;-33
2022/11/28 11:48:42;;;;;;;;;;;;;;;12.61;nan;101855.56;5074650;28;20458;-33
2022/11/28 11:51:23;;;;;;;;;;;;;;;12.66;nan;101855.66;5058984;28;20573;-34
2022/11/28 11:53:59;;;;;;;;;;;;;;;12.68;nan;101858.94;5076393;28;19924;-33
2022/11/28 11:56:24;;;;;;;;;;;;;;;12.71;nan;101855.78;5073636;28;19920;-33
2022/11/28 11:58:51;;;;;;;;;;;;;;;12.71;nan;101859.28;5073181;28;20072;-33
2022/11/28 12:01:18;;;;;;;;;;;;;;;12.67;nan;101852.75;5072847;28;19928;-33
2022/11/28 12:03:59;;;;;;;;;;;;;;;12.65;nan;101845.97;5074632;28;19924;-32
2022/11/28 12:06:28;;;;;;;;;;;;;;;12.66;nan;101843.03;5075035;28;20664;-33
2022/11/28 12:08:59;;;;;;;;;;;;;;;12.60;nan;101848.56;5070988;28;19920;-33
2022/11/28 12:11:29;;;;;;;;;;;;;;;12.64;nan;101845.16;5074489;28;20006;-33
2022/11/28 12:13:57;;;;;;;;;;;;;;;12.69;nan;101847.94;5073609;28;20015;-33
2022/11/28 12:16:38;;;;;;;;;;;;;;;12.74;nan;101844.53;5072985;28;19917;-33
2022/11/28 12:19:09;;;;;;;;;;;;;;;12.78;nan;101843.03;5071342;28;19965;-33
2022/11/28 12:21:44;;;;;;;;;;;;;;;12.94;nan;101845.00;5075216;28;19923;-32
2022/11/28 12:24:14;;;;;;;;;;;;;;;13.10;nan;101843.41;5072862;28;20007;-33
2022/11/28 12:26:57;;;;;;;;;;;;;;;13.17;nan;101836.06;5072787;28;20399;-33
2022/11/28 12:29:26;;;;;;;;;;;;;;;13.26;nan;101828.44;5075842;28;19917;-33
2022/11/28 12:31:54;;;;;;;;;;;;;;;13.16;nan;101831.72;5074667;28;19917;-33
2022/11/28 12:34:34;;;;;;;;;;;;;;;13.20;nan;101842.84;5074417;28;19929;-32
2022/11/28 12:37:18;;;;;;;;;;;;;;;13.19;nan;101844.72;5072445;28;19985;-32
2022/11/28 12:39:43;;;;;;;;;;;;;;;13.15;nan;101840.84;5071406;28;21972;-32
2022/11/28 12:42:11;;;;;;;;;;;;;;;13.16;nan;101844.38;5077625;28;19924;-32
2022/11/28 12:44:37;;;;;;;;;;;;;;;13.15;nan;101840.84;5074375;28;19927;-32
2022/11/28 12:47:02;;;;;;;;;;;;;;;13.23;nan;101839.69;5075125;28;19916;-32
2022/11/28 12:49:42;;;;;;;;;;;;;;;13.37;nan;101832.97;5073791;28;19928;-32
2022/11/28 12:52:20;;;;;;;;;;;;;;;13.53;nan;101837.59;5077126;28;20383;-32
2022/11/28 12:54:51;;;;;;;;;;;;;;;13.57;nan;101837.91;5072352;28;19924;-32
2022/11/28 12:57:24;;;;;;;;;;;;;;;13.51;nan;101838.88;5071273;28;19923;-32
2022/11/28 13:00:08;;;;;;;;;;;;;;;13.51;nan;101839.72;5073838;28;20252;-32
2022/11/28 13:02:42;;;;;;;;;;;;;;;13.47;nan;101843.94;5076522;28;20286;-32
2022/11/28 13:05:20;;;;;;;;;;;;;;;13.51;nan;101845.09;5073878;28;20368;-32
2022/11/28 13:08:11;;;;;;;;;;;;;;;13.65;nan;101851.00;5075882;28;20046;-32